createdAt,value
2022-08-05T00:00:53.300Z,95441.66
2022-08-05T00:01:56.330Z,95441.66
2022-08-05T00:03:09.937Z,95435.31
2022-08-05T00:04:18.760Z,95437.34
2022-08-05T00:06:02.941Z,95435.84
2022-08-05T00:06:43.719Z,95440.69
2022-08-05T00:07:59.644Z,95437.88
2022-08-05T00:09:12.681Z,95435.84
2022-08-05T00:10:15.154Z,95431.53
2022-08-05T00:11:30.158Z,95438.44
2022-08-05T00:12:55.844Z,95431.28
2022-08-05T00:13:59.185Z,95435.41
2022-08-05T00:15:14.036Z,95428.25
2022-08-05T00:16:35.563Z,95426.00
2022-08-05T00:17:39.629Z,95425.03
2022-08-05T00:18:46.535Z,95427.84
2022-08-05T00:20:01.892Z,95427.06
2022-08-05T00:21:05.154Z,95425.56
2022-08-05T00:22:11.509Z,95428.13
2022-08-05T00:23:13.543Z,95418.97
2022-08-05T00:24:19.258Z,95423.03
2022-08-05T00:25:27.020Z,95420.78
2022-08-05T00:26:51.879Z,95424.13
2022-08-05T00:27:54.300Z,95419.03
2022-08-05T00:28:58.214Z,95415.47
2022-08-05T00:30:00.484Z,95419.59
2022-08-05T00:31:07.636Z,95416.78
2022-08-05T00:32:15.345Z,95414.50
2022-08-05T00:34:53.261Z,95418.59
2022-08-05T00:34:54.215Z,95420.84
2022-08-05T00:36:15.957Z,95413.75
2022-08-05T00:37:25.892Z,95415.25
2022-08-05T00:38:28.685Z,95419.88
2022-08-05T00:39:36.971Z,95420.38
2022-08-05T00:40:51.899Z,95410.25
2022-08-05T00:41:55.917Z,95420.72
2022-08-05T00:43:00.698Z,95414.88
2022-08-05T00:44:02.640Z,95416.19
2022-08-05T00:45:11.791Z,95408.28
2022-08-05T00:46:16.457Z,95413.66
2022-08-05T00:47:18.612Z,95415.72
2022-08-05T00:48:27.539Z,95416.47
2022-08-05T00:49:44.746Z,95408.59
2022-08-05T00:50:54.496Z,95415.47
2022-08-05T00:51:56.363Z,95413.44
2022-08-05T00:53:00.390Z,95411.94
2022-08-05T00:54:04.626Z,95410.41
2022-08-05T00:55:08.475Z,95417.28
2022-08-05T00:56:11.650Z,95422.91
2022-08-05T00:57:13.934Z,95409.94
2022-08-05T00:58:19.193Z,95416.31
2022-08-05T00:59:21.184Z,95418.34
2022-08-05T01:00:26.061Z,95415.53
2022-08-05T01:01:48.205Z,95416.31
2022-08-05T01:02:50.895Z,95414.03
2022-08-05T01:03:56.021Z,95415.34
2022-08-05T01:04:57.868Z,95412.31
2022-08-05T01:06:02.622Z,95414.88
2022-08-05T01:07:07.581Z,95413.88
2022-08-05T01:08:41.838Z,95416.44
2022-08-05T01:09:40.041Z,95407.31
2022-08-05T01:10:51.518Z,95411.38
2022-08-05T01:12:09.238Z,95407.31
2022-08-05T01:13:27.358Z,95404.25
2022-08-05T01:15:03.940Z,95411.09
2022-08-05T01:16:12.995Z,95410.34
2022-08-05T01:17:24.084Z,95409.59
2022-08-05T01:18:32.947Z,95409.59
2022-08-05T01:20:02.149Z,95413.69
2022-08-05T01:21:12.297Z,95414.97
2022-08-05T01:22:38.664Z,95411.94
2022-08-05T01:23:54.854Z,95413.25
2022-08-05T01:25:40.056Z,95413.25
2022-08-05T01:26:59.648Z,95410.22
2022-08-05T01:28:18.834Z,95411.47
2022-08-05T01:29:28.557Z,95415.56
2022-08-05T01:30:36.638Z,95414.03
2022-08-05T01:31:45.343Z,95412.53
2022-08-05T01:32:49.570Z,95408.22
2022-08-05T01:34:00.894Z,95406.72
2022-08-05T01:35:10.593Z,95412.06
2022-08-05T01:36:17.892Z,95405.22
2022-08-05T01:37:30.011Z,95402.94
2022-08-05T01:38:38.838Z,95401.41
2022-08-05T01:39:46.471Z,95411.84
2022-08-05T01:40:50.528Z,95409.03
2022-08-05T01:41:56.828Z,95401.94
2022-08-05T01:43:02.187Z,95406.78
2022-08-05T01:44:11.176Z,95407.53
2022-08-05T01:45:14.728Z,95408.81
2022-08-05T01:46:42.791Z,95411.59
2022-08-05T01:47:47.815Z,95406.56
2022-08-05T01:48:51.652Z,95409.88
2022-08-05T01:50:02.281Z,95402.78
2022-08-05T01:51:12.006Z,95407.06
2022-08-05T01:52:19.037Z,95404.78
2022-08-05T01:53:57.781Z,95406.84
2022-08-05T01:54:52.705Z,95405.34
2022-08-05T01:55:59.809Z,95405.34
2022-08-05T01:58:13.082Z,95412.19
2022-08-05T01:58:44.733Z,95406.59
2022-08-05T01:59:59.518Z,95407.88
2022-08-05T02:01:03.304Z,95406.38
2022-08-05T02:02:07.521Z,95414.00
2022-08-05T02:03:24.500Z,95409.69
2022-08-05T02:04:37.796Z,95408.19
2022-08-05T02:05:44.870Z,95407.41
2022-08-05T02:06:51.779Z,95409.47
2022-08-05T02:07:57.893Z,95405.91
2022-08-05T02:09:03.519Z,95409.97
2022-08-05T02:10:08.531Z,95415.59
2022-08-05T02:11:14.784Z,95407.69
2022-08-05T02:12:33.016Z,95411.03
2022-08-05T02:13:53.062Z,95408.75
2022-08-05T02:15:03.688Z,95404.66
2022-08-05T02:16:18.090Z,95409.50
2022-08-05T02:18:14.508Z,95403.69
2022-08-05T02:18:55.668Z,95405.22
2022-08-05T02:20:01.913Z,95402.19
2022-08-05T02:21:15.085Z,95404.97
2022-08-05T02:22:26.406Z,95409.03
2022-08-05T02:23:33.935Z,95408.28
2022-08-05T02:24:40.935Z,95404.75
2022-08-05T02:25:49.529Z,95401.94
2022-08-05T02:26:56.341Z,95414.44
2022-08-05T02:28:00.666Z,95402.22
2022-08-05T02:29:04.016Z,95405.03
2022-08-05T02:30:11.523Z,95407.81
2022-08-05T02:31:17.087Z,95402.78
2022-08-05T02:32:29.235Z,95402.00
2022-08-05T02:33:38.294Z,95406.81
2022-08-05T02:34:42.959Z,95398.44
2022-08-05T02:36:01.359Z,95410.69
2022-08-05T02:37:07.885Z,95398.19
2022-08-05T02:38:12.383Z,95406.59
2022-08-05T02:39:23.049Z,95405.59
2022-08-05T02:40:27.456Z,95402.81
2022-08-05T02:41:43.011Z,95407.66
2022-08-05T02:42:55.342Z,95405.38
2022-08-05T02:44:02.222Z,95410.22
2022-08-05T02:45:12.000Z,95408.72
2022-08-05T02:46:16.380Z,95405.91
2022-08-05T02:47:20.734Z,95409.97
2022-08-05T02:48:29.143Z,95405.91
2022-08-05T02:49:37.777Z,95409.97
2022-08-05T02:50:47.082Z,95400.84
2022-08-05T02:52:03.628Z,95403.63
2022-08-05T02:53:11.686Z,95400.84
2022-08-05T02:54:35.631Z,95408.47
2022-08-05T02:55:53.850Z,95405.69
2022-08-05T02:56:59.897Z,95404.16
2022-08-05T02:58:10.178Z,95404.16
2022-08-05T02:59:18.227Z,95406.94
2022-08-05T03:00:22.132Z,95406.72
2022-08-05T03:01:31.361Z,95412.31
2022-08-05T03:02:37.159Z,95403.69
2022-08-05T03:04:02.633Z,95408.50
2022-08-05T03:05:08.873Z,95408.50
2022-08-05T03:06:56.562Z,95409.28
2022-08-05T03:07:59.392Z,95409.28
2022-08-05T03:09:00.082Z,95402.16
2022-08-05T03:10:02.448Z,95409.28
2022-08-05T03:11:55.263Z,95407.25
2022-08-05T03:12:51.777Z,95410.78
2022-08-05T03:14:02.770Z,95405.19
2022-08-05T03:15:09.241Z,95405.94
2022-08-05T03:16:12.677Z,95410.78
2022-08-05T03:17:20.177Z,95402.41
2022-08-05T03:18:24.753Z,95392.50
2022-08-05T03:19:36.019Z,95395.31
2022-08-05T03:20:38.789Z,95396.56
2022-08-05T03:21:51.767Z,95393.78
2022-08-05T03:22:57.184Z,95407.75
2022-08-05T03:24:02.447Z,95400.66
2022-08-05T03:25:33.643Z,95397.88
2022-08-05T03:26:31.407Z,95400.66
2022-08-05T03:27:57.889Z,95392.00
2022-08-05T03:28:57.579Z,95396.06
2022-08-05T03:30:08.593Z,95395.31
2022-08-05T03:31:25.819Z,95388.97
2022-08-05T03:32:36.646Z,95398.66
2022-08-05T03:33:51.275Z,95391.53
2022-08-05T03:34:55.159Z,95394.31
2022-08-05T03:35:59.773Z,95383.66
2022-08-05T03:37:02.856Z,95394.84
2022-08-05T03:38:04.788Z,95384.19
2022-08-05T03:39:12.917Z,95386.25
2022-08-05T03:40:31.270Z,95387.00
2022-08-05T03:41:38.811Z,95383.97
2022-08-05T03:42:52.517Z,95388.03
2022-08-05T03:44:09.730Z,95382.44
2022-08-05T03:45:21.188Z,95386.53
2022-08-05T03:46:29.698Z,95388.03
2022-08-05T03:47:35.557Z,95388.56
2022-08-05T03:48:45.389Z,95386.53
2022-08-05T03:49:51.802Z,95387.81
2022-08-05T03:52:37.773Z,95389.06
2022-08-05T03:52:38.146Z,95395.41
2022-08-05T03:55:54.022Z,95391.13
2022-08-05T03:56:05.579Z,95387.56
2022-08-05T03:56:51.930Z,95387.56
2022-08-05T03:57:56.284Z,95394.44
2022-08-05T03:59:02.613Z,95401.56
2022-08-05T04:00:07.974Z,95397.22
2022-08-05T04:01:20.890Z,95400.03
2022-08-05T04:02:38.860Z,95397.75
2022-08-05T04:04:10.407Z,95399.03
2022-08-05T04:05:13.666Z,95409.69
2022-08-05T04:06:18.649Z,95417.34
2022-08-05T04:07:24.913Z,95421.38
2022-08-05T04:08:36.333Z,95426.22
2022-08-05T04:09:53.257Z,95429.03
2022-08-05T04:10:58.238Z,95435.88
2022-08-05T04:12:00.235Z,95438.16
2022-08-05T04:13:04.351Z,95440.19
2022-08-05T04:14:07.174Z,95443.75
2022-08-05T04:15:15.475Z,95437.41
2022-08-05T04:16:25.556Z,95437.41
2022-08-05T04:17:55.757Z,95435.88
2022-08-05T04:18:58.712Z,95443.00
2022-08-05T04:20:02.522Z,95447.06
2022-08-05T04:21:06.785Z,95445.56
2022-08-05T04:22:12.285Z,95452.66
2022-08-05T04:23:16.035Z,95455.44
2022-08-05T04:24:19.601Z,95450.63
2022-08-05T04:25:57.714Z,95447.06
2022-08-05T04:26:48.407Z,95451.91
2022-08-05T04:27:58.852Z,95453.44
2022-08-05T04:29:07.183Z,95451.91
2022-08-05T04:30:10.502Z,95451.91
2022-08-05T04:31:13.911Z,95451.13
2022-08-05T04:32:30.702Z,95456.72
2022-08-05T04:34:17.594Z,95456.72
2022-08-05T04:34:57.748Z,95458.78
2022-08-05T04:36:16.152Z,95455.97
2022-08-05T04:38:02.976Z,95459.53
2022-08-05T04:38:46.639Z,95459.53
2022-08-05T04:39:53.508Z,95459.53
2022-08-05T04:40:58.769Z,95456.72
2022-08-05T04:42:01.800Z,95452.66
2022-08-05T04:43:07.249Z,95455.97
2022-08-05T04:44:24.442Z,95451.91
2022-08-05T04:45:48.211Z,95450.63
2022-08-05T04:46:52.859Z,95452.66
2022-08-05T04:47:54.891Z,95450.09
2022-08-05T04:49:01.923Z,95458.47
2022-08-05T04:50:10.909Z,95455.69
2022-08-05T04:51:14.514Z,95454.41
2022-08-05T04:52:16.656Z,95461.50
2022-08-05T04:53:21.515Z,95458.97
2022-08-05T04:54:26.985Z,95454.91
2022-08-05T04:56:15.490Z,95456.41
2022-08-05T04:56:57.481Z,95462.47
2022-08-05T04:58:02.613Z,95457.13
2022-08-05T04:59:22.474Z,95457.38
2022-08-05T05:00:27.372Z,95453.53
2022-08-05T05:02:07.899Z,95461.63
2022-08-05T05:02:52.554Z,95458.56
2022-08-05T05:03:54.922Z,95461.84
2022-08-05T05:05:02.840Z,95459.53
2022-08-05T05:06:35.808Z,95464.06
2022-08-05T05:07:29.754Z,95461.19
2022-08-05T05:08:37.553Z,95475.16
2022-08-05T05:09:44.903Z,95464.44
2022-08-05T05:10:56.137Z,95466.41
2022-08-05T05:12:01.965Z,95469.13
2022-08-05T05:13:06.108Z,95470.34
2022-08-05T05:14:08.601Z,95472.38
2022-08-05T05:15:12.333Z,95472.28
2022-08-05T05:16:19.799Z,95465.88
2022-08-05T05:17:24.526Z,95469.88
2022-08-05T05:19:08.880Z,95473.41
2022-08-05T05:20:11.402Z,95472.81
2022-08-05T05:21:13.275Z,95474.56
2022-08-05T05:22:22.614Z,95482.16
2022-08-05T05:23:26.744Z,95477.78
2022-08-05T05:24:58.034Z,95475.97
2022-08-05T05:25:52.411Z,95479.44
2022-08-05T05:26:54.663Z,95481.94
2022-08-05T05:28:00.093Z,95476.03
2022-08-05T05:29:02.546Z,95476.50
2022-08-05T05:30:06.927Z,95475.44
2022-08-05T05:31:18.832Z,95475.88
2022-08-05T05:32:20.664Z,95486.28
2022-08-05T05:33:24.156Z,95473.25
2022-08-05T05:34:27.270Z,95475.75
2022-08-05T05:35:37.675Z,95478.78
2022-08-05T05:36:40.090Z,95480.00
2022-08-05T05:37:59.365Z,95480.47
2022-08-05T05:39:04.342Z,95476.06
2022-08-05T05:40:08.135Z,95480.84
2022-08-05T05:41:11.074Z,95489.69
2022-08-05T05:42:18.197Z,95483.25
2022-08-05T05:43:54.569Z,95484.44
2022-08-05T05:44:47.291Z,95481.81
2022-08-05T05:45:49.198Z,95486.56
2022-08-05T05:46:52.008Z,95478.38
2022-08-05T05:48:06.350Z,95484.22
2022-08-05T05:49:22.548Z,95481.59
2022-08-05T05:50:25.977Z,95485.59
2022-08-05T05:51:30.309Z,95485.56
2022-08-05T05:52:53.152Z,95494.59
2022-08-05T05:53:58.724Z,95489.91
2022-08-05T05:55:02.375Z,95487.47
2022-08-05T05:56:09.588Z,95492.16
2022-08-05T05:57:13.534Z,95489.97
2022-08-05T05:58:30.316Z,95487.97
2022-08-05T05:59:40.382Z,95492.75
2022-08-05T06:00:46.393Z,95488.66
2022-08-05T06:01:57.087Z,95488.66
2022-08-05T06:03:03.128Z,95493.00
2022-08-05T06:04:26.408Z,95496.19
2022-08-05T06:05:28.528Z,95493.53
2022-08-05T06:06:36.168Z,95490.13
2022-08-05T06:07:42.176Z,95496.47
2022-08-05T06:09:01.056Z,95491.28
2022-08-05T06:10:08.308Z,95492.19
2022-08-05T06:11:13.366Z,95487.19
2022-08-05T06:12:15.552Z,95493.72
2022-08-05T06:13:18.485Z,95488.22
2022-08-05T06:14:20.341Z,95487.09
2022-08-05T06:15:24.187Z,95493.38
2022-08-05T06:16:28.742Z,95496.31
2022-08-05T06:17:53.412Z,95491.16
2022-08-05T06:18:56.092Z,95497.97
2022-08-05T06:20:03.521Z,95494.09
2022-08-05T06:21:07.997Z,95503.72
2022-08-05T06:22:26.745Z,95493.47
2022-08-05T06:23:32.086Z,95499.88
2022-08-05T06:24:48.171Z,95493.19
2022-08-05T06:26:12.495Z,95499.00
2022-08-05T06:28:09.347Z,95491.34
2022-08-05T06:28:38.020Z,95500.75
2022-08-05T06:29:46.513Z,95498.47
2022-08-05T06:30:57.341Z,95507.66
2022-08-05T06:31:59.287Z,95502.28
2022-08-05T06:33:02.644Z,95500.00
2022-08-05T06:34:07.116Z,95500.75
2022-08-05T06:35:15.572Z,95496.84
2022-08-05T06:36:53.578Z,95494.03
2022-08-05T06:38:03.051Z,95495.56
2022-08-05T06:39:11.909Z,95497.06
2022-08-05T06:40:18.384Z,95503.47
2022-08-05T06:41:22.978Z,95499.34
2022-08-05T06:42:26.318Z,95495.06
2022-08-05T06:43:58.296Z,95502.91
2022-08-05T06:44:51.198Z,95505.19
2022-08-05T06:46:06.608Z,95507.09
2022-08-05T06:47:30.006Z,95505.03
2022-08-05T06:48:55.760Z,95513.88
2022-08-05T06:50:01.336Z,95502.09
2022-08-05T06:51:09.454Z,95500.97
2022-08-05T06:52:37.972Z,95513.56
2022-08-05T06:53:39.100Z,95509.09
2022-08-05T06:54:41.486Z,95509.19
2022-08-05T06:55:44.480Z,95509.47
2022-08-05T06:56:55.083Z,95509.75
2022-08-05T06:58:20.343Z,95514.13
2022-08-05T06:59:38.767Z,95510.88
2022-08-05T07:00:45.419Z,95512.16
2022-08-05T07:01:53.029Z,95510.94
2022-08-05T07:02:56.061Z,95513.53
2022-08-05T07:03:57.949Z,95516.09
2022-08-05T07:05:02.421Z,95520.19
2022-08-05T07:06:05.443Z,95521.50
2022-08-05T07:07:09.170Z,95521.25
2022-08-05T07:08:11.293Z,95522.00
2022-08-05T07:09:15.547Z,95528.88
2022-08-05T07:10:18.641Z,95528.88
2022-08-05T07:11:25.298Z,95533.72
2022-08-05T07:12:49.158Z,95533.22
2022-08-05T07:14:20.586Z,95548.19
2022-08-05T07:16:01.806Z,95552.13
2022-08-05T07:18:01.401Z,95556.59
2022-08-05T07:18:30.397Z,95563.56
2022-08-05T07:20:57.056Z,95558.25
2022-08-05T07:22:00.164Z,95569.16
2022-08-05T07:23:04.515Z,95575.75
2022-08-05T07:24:11.271Z,95579.09
2022-08-05T07:25:55.069Z,95570.22
2022-08-05T07:26:38.942Z,95573.88
2022-08-05T07:27:58.271Z,95571.88
2022-08-05T07:29:05.218Z,95565.38
2022-08-05T07:30:22.330Z,95573.09
2022-08-05T07:31:54.196Z,95582.34
2022-08-05T07:32:54.110Z,95585.97
2022-08-05T07:33:57.090Z,95575.78
2022-08-05T07:36:01.625Z,95586.53
2022-08-05T07:36:26.330Z,95589.63
2022-08-05T07:37:37.512Z,95591.44
2022-08-05T07:38:44.176Z,95584.84
2022-08-05T07:40:04.255Z,95587.44
2022-08-05T07:42:07.408Z,95596.34
2022-08-05T07:42:35.953Z,95600.97
2022-08-05T07:43:38.346Z,95608.63
2022-08-05T07:44:41.212Z,95609.91
2022-08-05T07:45:57.647Z,95606.31
2022-08-05T07:47:01.418Z,95603.00
2022-08-05T07:48:10.003Z,95600.22
2022-08-05T07:49:13.691Z,95615.72
2022-08-05T07:50:16.671Z,95616.50
2022-08-05T07:51:23.824Z,95620.53
2022-08-05T07:52:41.293Z,95625.81
2022-08-05T07:53:50.581Z,95625.78
2022-08-05T07:54:53.992Z,95621.38
2022-08-05T07:56:05.831Z,95631.03
2022-08-05T07:57:52.333Z,95623.53
2022-08-05T07:58:58.684Z,95623.19
2022-08-05T08:00:02.235Z,95631.75
2022-08-05T08:01:14.995Z,95629.63
2022-08-05T08:02:18.170Z,95641.63
2022-08-05T08:03:21.588Z,95637.06
2022-08-05T08:04:37.467Z,95636.31
2022-08-05T08:05:47.274Z,95622.06
2022-08-05T08:06:51.861Z,95637.81
2022-08-05T08:07:59.954Z,95637.28
2022-08-05T08:09:02.706Z,95637.75
2022-08-05T08:10:06.997Z,95632.38
2022-08-05T08:11:09.144Z,95629.81
2022-08-05T08:12:32.058Z,95635.41
2022-08-05T08:13:49.551Z,95638.50
2022-08-05T08:15:04.479Z,95647.22
2022-08-05T08:16:50.271Z,95651.59
2022-08-05T08:17:30.273Z,95655.69
2022-08-05T08:18:33.658Z,95662.06
2022-08-05T08:20:21.546Z,95652.38
2022-08-05T08:21:02.768Z,95659.94
2022-08-05T08:22:06.578Z,95664.72
2022-08-05T08:24:03.271Z,95670.34
2022-08-05T08:24:51.635Z,95675.41
2022-08-05T08:26:00.123Z,95674.34
2022-08-05T08:27:07.109Z,95677.38
2022-08-05T08:28:17.978Z,95674.06
2022-08-05T08:30:05.096Z,95671.50
2022-08-05T08:30:48.019Z,95677.84
2022-08-05T08:31:53.506Z,95670.94
2022-08-05T08:32:55.757Z,95668.91
2022-08-05T08:34:00.180Z,95668.91
2022-08-05T08:35:02.096Z,95673.97
2022-08-05T08:36:37.449Z,95659.97
2022-08-05T08:37:29.229Z,95666.13
2022-08-05T08:38:37.612Z,95664.59
2022-08-05T08:39:49.415Z,95663.31
2022-08-05T08:40:53.133Z,95660.50
2022-08-05T08:42:02.242Z,95673.22
2022-08-05T08:45:16.161Z,95663.50
2022-08-05T08:45:16.503Z,95677.78
2022-08-05T08:45:58.946Z,95678.53
2022-08-05T08:47:03.595Z,95687.72
2022-08-05T08:48:43.060Z,95682.84
2022-08-05T08:50:14.722Z,95678.22
2022-08-05T08:52:01.746Z,95680.50
2022-08-05T08:52:47.415Z,95681.75
2022-08-05T08:53:54.952Z,95668.47
2022-08-05T08:54:57.772Z,95681.22
2022-08-05T08:56:05.770Z,95681.44
2022-08-05T08:57:11.467Z,95683.50
2022-08-05T08:58:16.707Z,95687.59
2022-08-05T08:59:20.706Z,95676.38
2022-08-05T09:00:25.904Z,95694.72
2022-08-05T09:01:28.487Z,95693.97
2022-08-05T09:02:33.480Z,95686.53
2022-08-05T09:03:40.453Z,95686.53
2022-08-05T09:05:16.971Z,95697.75
2022-08-05T09:06:11.541Z,95688.03
2022-08-05T09:07:19.662Z,95691.06
2022-08-05T09:08:31.242Z,95684.41
2022-08-05T09:09:35.798Z,95683.13
2022-08-05T09:10:41.408Z,95700.19
2022-08-05T09:11:53.397Z,95701.69
2022-08-05T09:13:04.735Z,95700.41
2022-08-05T09:14:54.575Z,95711.63
2022-08-05T09:15:31.764Z,95709.34
2022-08-05T09:16:40.173Z,95710.94
2022-08-05T09:17:53.107Z,95704.34
2022-08-05T09:18:55.418Z,95713.06
2022-08-05T09:20:02.658Z,95719.72
2022-08-05T09:21:11.612Z,95708.03
2022-08-05T09:22:30.946Z,95713.94
2022-08-05T09:23:37.427Z,95717.28
2022-08-05T09:24:57.420Z,95711.66
2022-08-05T09:26:09.351Z,95710.38
2022-08-05T09:28:04.891Z,95710.63
2022-08-05T09:29:00.074Z,95706.50
2022-08-05T09:30:06.469Z,95716.44
2022-08-05T09:31:23.294Z,95719.25
2022-08-05T09:32:51.879Z,95716.97
2022-08-05T09:33:58.643Z,95717.50
2022-08-05T09:35:10.579Z,95717.50
2022-08-05T09:36:16.393Z,95723.09
2022-08-05T09:38:18.416Z,95716.22
2022-08-05T09:38:57.560Z,95716.97
2022-08-05T09:39:59.648Z,95726.38
2022-08-05T09:41:07.085Z,95727.13
2022-08-05T09:42:11.431Z,95723.28
2022-08-05T09:43:41.192Z,95727.31
2022-08-05T09:44:50.625Z,95723.97
2022-08-05T09:46:06.829Z,95731.88
2022-08-05T09:47:16.128Z,95721.41
2022-08-05T09:48:27.028Z,95730.81
2022-08-05T09:49:40.261Z,95726.19
2022-08-05T09:50:56.129Z,95730.19
2022-08-05T09:51:58.148Z,95726.13
2022-08-05T09:53:01.923Z,95727.84
2022-08-05T09:54:08.401Z,95730.91
2022-08-05T09:55:57.130Z,95724.22
2022-08-05T09:56:37.804Z,95720.13
2022-08-05T09:57:43.429Z,95718.81
2022-08-05T09:58:57.859Z,95725.19
2022-08-05T10:00:07.332Z,95726.72
2022-08-05T10:01:15.764Z,95723.38
2022-08-05T10:02:39.077Z,95727.72
2022-08-05T10:03:58.844Z,95727.94
2022-08-05T10:05:08.351Z,95723.06
2022-08-05T10:06:15.479Z,95729.44
2022-08-05T10:07:19.937Z,95730.19
2022-08-05T10:08:38.162Z,95732.47
2022-08-05T10:10:14.627Z,95731.72
2022-08-05T10:11:18.975Z,95731.19
2022-08-05T10:12:33.397Z,95732.72
2022-08-05T10:13:45.779Z,95741.13
2022-08-05T10:14:49.992Z,95738.09
2022-08-05T10:15:58.273Z,95738.84
2022-08-05T10:17:37.379Z,95735.50
2022-08-05T10:18:41.665Z,95737.78
2022-08-05T10:20:03.949Z,95729.38
2022-08-05T10:21:08.444Z,95732.94
2022-08-05T10:22:15.647Z,95741.34
2022-08-05T10:23:59.645Z,95732.94
2022-08-05T10:24:57.317Z,95740.06
2022-08-05T10:26:01.866Z,95728.81
2022-08-05T10:27:03.975Z,95740.06
2022-08-05T10:28:17.137Z,95730.13
2022-08-05T10:29:24.107Z,95732.94
2022-08-05T10:32:48.937Z,95733.16
2022-08-05T10:32:53.354Z,95726.81
2022-08-05T10:33:35.137Z,95724.97
2022-08-05T10:34:40.918Z,95729.28
2022-08-05T10:35:45.011Z,95726.47
2022-08-05T10:36:49.705Z,95729.50
2022-08-05T10:37:53.756Z,95726.69
2022-08-05T10:39:11.828Z,95718.50
2022-08-05T10:40:28.199Z,95723.38
2022-08-05T10:41:44.913Z,95729.00
2022-08-05T10:42:52.565Z,95728.44
2022-08-05T10:43:59.318Z,95725.63
2022-08-05T10:45:02.366Z,95734.28
2022-08-05T10:46:24.567Z,95723.06
2022-08-05T10:47:32.747Z,95721.22
2022-08-05T10:48:52.386Z,95719.94
2022-08-05T10:50:20.850Z,95727.06
2022-08-05T10:51:59.587Z,95726.53
2022-08-05T10:53:04.096Z,95717.59
2022-08-05T10:54:23.230Z,95719.88
2022-08-05T10:55:38.439Z,95717.81
2022-08-05T10:56:57.249Z,95717.28
2022-08-05T10:58:09.400Z,95713.97
2022-08-05T11:00:02.964Z,95716.22
2022-08-05T11:00:46.610Z,95717.75
2022-08-05T11:02:03.768Z,95720.56
2022-08-05T11:03:25.402Z,95709.84
2022-08-05T11:04:30.996Z,95710.16
2022-08-05T11:05:35.857Z,95719.13
2022-08-05T11:07:08.166Z,95716.06
2022-08-05T11:08:36.619Z,95721.44
2022-08-05T11:09:45.777Z,95714.84
2022-08-05T11:10:50.013Z,95720.25
2022-08-05T11:12:03.146Z,95715.69
2022-08-05T11:13:08.631Z,95722.59
2022-08-05T11:14:12.149Z,95716.22
2022-08-05T11:15:21.373Z,95714.72
2022-08-05T11:16:33.914Z,95718.81
2022-08-05T11:18:07.342Z,95720.09
2022-08-05T11:20:11.435Z,95716.56
2022-08-05T11:20:52.078Z,95718.06
2022-08-05T11:21:55.044Z,95720.34
2022-08-05T11:23:06.131Z,95713.97
2022-08-05T11:24:29.630Z,95715.47
2022-08-05T11:26:04.815Z,95714.94
2022-08-05T11:27:51.248Z,95706.75
2022-08-05T11:28:55.888Z,95709.56
2022-08-05T11:30:01.445Z,95709.00
2022-08-05T11:31:54.460Z,95707.72
2022-08-05T11:33:44.170Z,95705.16
2022-08-05T11:34:54.477Z,95707.97
2022-08-05T11:36:07.422Z,95710.78
2022-08-05T11:38:26.359Z,95710.78
2022-08-05T11:39:01.840Z,95705.16
2022-08-05T11:40:05.826Z,95713.03
2022-08-05T11:41:58.270Z,95703.31
2022-08-05T11:42:37.685Z,95702.53
2022-08-05T11:44:06.366Z,95698.47
2022-08-05T11:45:14.304Z,95697.72
2022-08-05T11:46:32.820Z,95698.47
2022-08-05T11:47:49.985Z,95697.72
2022-08-05T11:48:52.746Z,95699.72
2022-08-05T11:50:00.557Z,95698.47
2022-08-05T11:51:05.222Z,95699.97
2022-08-05T11:52:11.983Z,95692.84
2022-08-05T11:53:14.100Z,95687.97
2022-08-05T11:54:33.308Z,95692.31
2022-08-05T11:55:37.295Z,95688.72
2022-08-05T11:56:50.432Z,95693.84
2022-08-05T11:58:09.743Z,95692.31
2022-08-05T11:59:16.362Z,95694.59
2022-08-05T12:00:28.885Z,95697.63
2022-08-05T12:01:30.994Z,95688.47
2022-08-05T12:02:36.048Z,95692.03
2022-08-05T12:03:43.780Z,95689.22
2022-08-05T12:05:00.545Z,95692.03
2022-08-05T12:06:05.984Z,95689.22
2022-08-05T12:07:11.600Z,95685.13
2022-08-05T12:08:18.009Z,95695.06
2022-08-05T12:09:38.690Z,95696.03
2022-08-05T12:10:51.704Z,95691.72
2022-08-05T12:11:55.642Z,95691.16
2022-08-05T12:13:03.836Z,95686.31
2022-08-05T12:14:19.111Z,95687.06
2022-08-05T12:15:37.846Z,95681.47
2022-08-05T12:16:45.208Z,95675.84
2022-08-05T12:18:02.806Z,95684.50
2022-08-05T12:19:08.454Z,95680.59
2022-08-05T12:20:17.666Z,95683.63
2022-08-05T12:21:39.388Z,95676.94
2022-08-05T12:22:41.428Z,95674.88
2022-08-05T12:24:04.239Z,95668.75
2022-08-05T12:25:08.921Z,95674.34
2022-08-05T12:26:16.302Z,95665.41
2022-08-05T12:27:25.505Z,95665.41
2022-08-05T12:28:32.478Z,95664.09
2022-08-05T12:29:38.858Z,95656.63
2022-08-05T12:30:45.926Z,95667.88
2022-08-05T12:31:53.414Z,95660.97
2022-08-05T12:32:58.700Z,95659.66
2022-08-05T12:34:20.243Z,95666.81
2022-08-05T12:35:24.866Z,95652.78
2022-08-05T12:36:45.349Z,95651.47
2022-08-05T12:37:49.251Z,95658.63
2022-08-05T12:38:57.954Z,95658.63
2022-08-05T12:40:03.713Z,95656.56
2022-08-05T12:41:14.728Z,95648.88
2022-08-05T12:42:21.361Z,95658.84
2022-08-05T12:43:27.418Z,95659.38
2022-08-05T12:44:36.018Z,95654.50
2022-08-05T12:45:50.097Z,95646.06
2022-08-05T12:46:55.246Z,95650.41
2022-08-05T12:48:01.493Z,95654.50
2022-08-05T12:49:21.339Z,95646.06
2022-08-05T12:50:27.691Z,95646.06
2022-08-05T12:52:13.875Z,95650.19
2022-08-05T12:53:16.642Z,95651.47
2022-08-05T12:54:23.348Z,95641.53
2022-08-05T12:55:32.598Z,95648.44
2022-08-05T12:56:41.354Z,95638.50
2022-08-05T12:58:49.151Z,95641.31
2022-08-05T12:59:21.101Z,95635.69
2022-08-05T13:02:00.872Z,95644.13
2022-08-05T13:02:07.026Z,95637.94
2022-08-05T13:03:12.203Z,95638.72
2022-08-05T13:04:21.161Z,95643.03
2022-08-05T13:05:23.896Z,95631.28
2022-08-05T13:06:27.384Z,95639.16
2022-08-05T13:07:57.387Z,95642.19
2022-08-05T13:08:54.084Z,95637.34
2022-08-05T13:09:58.874Z,95635.50
2022-08-05T13:11:04.526Z,95637.00
2022-08-05T13:12:13.136Z,95627.28
2022-08-05T13:14:06.742Z,95626.50
2022-08-05T13:14:43.971Z,95624.69
2022-08-05T13:15:51.234Z,95633.13
2022-08-05T13:16:56.842Z,95632.56
2022-08-05T13:17:59.383Z,95621.34
2022-08-05T13:19:02.775Z,95626.19
2022-08-05T13:20:08.525Z,95620.59
2022-08-05T13:21:10.606Z,95627.69
2022-08-05T13:22:29.130Z,95624.13
2022-08-05T13:23:34.380Z,95626.19
2022-08-05T13:24:51.386Z,95616.28
2022-08-05T13:26:01.231Z,95625.13
2022-08-05T13:27:04.669Z,95621.03
2022-08-05T13:28:07.627Z,95630.72
2022-08-05T13:29:19.117Z,95619.50
2022-08-05T13:30:39.277Z,95617.47
2022-08-05T13:32:04.069Z,95616.91
2022-08-05T13:33:05.258Z,95616.38
2022-08-05T13:34:21.797Z,95611.50
2022-08-05T13:35:42.428Z,95613.03
2022-08-05T13:36:45.573Z,95606.09
2022-08-05T13:37:55.722Z,95607.59
2022-08-05T13:38:59.285Z,95607.06
2022-08-05T13:40:15.078Z,95600.16
2022-08-05T13:41:25.788Z,95607.50
2022-08-05T13:42:39.642Z,95608.25
2022-08-05T13:43:54.502Z,95606.97
2022-08-05T13:44:58.913Z,95601.56
2022-08-05T13:46:00.930Z,95605.56
2022-08-05T13:47:08.559Z,95601.13
2022-08-05T13:48:58.127Z,95605.69
2022-08-05T13:49:35.373Z,95601.56
2022-08-05T13:50:37.534Z,95595.94
2022-08-05T13:51:45.777Z,95595.94
2022-08-05T13:52:49.885Z,95593.13
2022-08-05T13:53:57.853Z,95602.31
2022-08-05T13:55:07.755Z,95605.69
2022-08-05T13:56:18.793Z,95601.56